SANU/UAQ METAR and TAF weather

Enter ICAO airport designator
Station Type Date Time Source
SANU METAR 2019/01/06 10:30 UTC NOAA

SANU 061030Z 18019KT 9999 BKN045TCU BKN060 25/17 Q1006


Station Type Date Time Source
SANU Decoded METAR 2019/01/06 10:30 UTC NOAA

San Juan Aerodrome, Argentina (SANU) 31-34S 068-52W 598M
Jan 06, 2019 - 05:30 AM EST / 2019.01.06 1030 UTC
Wind: from the S (180 degrees) at 22 MPH (19 KT):0
Visibility: greater than 7 mile(s):0
Sky conditions: mostly cloudy
Weather: Towering cumulus clouds observed
Temperature: 77 F (25 C)
Dew Point: 62 F (17 C)
Relative Humidity: 61%
Pressure (altimeter): 29.71 in. Hg (1006 hPa)
ob: SANU 061030Z 18019KT 9999 BKN045TCU BKN060 25/17 Q1006
cycle: 10

Station Type Date Time Source
SANU TAF 2019/02/20 06:24 UTC NOAA

TAF SANU 200500Z 2006/2106 20005KT CAVOK TN22/2010Z TX35/2020Z
BECMG 2010/2012 16005KT 9999 FEW045
BECMG 2021/2023 20005KT 9999 FEW050TCUPROB40
TEMPO 2102/2106 16010KT 9999 VCTS FEW040 FEW050CB


Example: see airport list